sensor_id;sensor_type;location;lat;lon;timestamp;temperature;humidity
4279;DHT22;2153;47.744;10.580;2023-05-10T00:00:37;11.60;99.90
4279;DHT22;2153;47.744;10.580;2023-05-10T00:03:04;11.60;99.90
4279;DHT22;2153;47.744;10.580;2023-05-10T00:05:31;11.60;99.90
4279;DHT22;2153;47.744;10.580;2023-05-10T00:07:57;11.60;99.90
4279;DHT22;2153;47.744;10.580;2023-05-10T00:10:25;11.50;99.90
4279;DHT22;2153;47.744;10.580;2023-05-10T00:12:52;11.50;99.90
4279;DHT22;2153;47.744;10.580;2023-05-10T00:15:19;11.50;99.90
4279;DHT22;2153;47.744;10.580;2023-05-10T00:17:45;11.50;99.90
4279;DHT22;2153;47.744;10.580;2023-05-10T00:20:12;11.50;99.90
4279;DHT22;2153;47.744;10.580;2023-05-10T00:22:39;11.50;99.90
4279;DHT22;2153;47.744;10.580;2023-05-10T00:25:07;11.50;99.90
4279;DHT22;2153;47.744;10.580;2023-05-10T00:27:35;11.50;99.90
4279;DHT22;2153;47.744;10.580;2023-05-10T00:30:03;11.40;99.90
4279;DHT22;2153;47.744;10.580;2023-05-10T00:32:29;11.50;99.90
4279;DHT22;2153;47.744;10.580;2023-05-10T00:34:56;11.50;99.90
4279;DHT22;2153;47.744;10.580;2023-05-10T00:37:23;11.40;99.90
4279;DHT22;2153;47.744;10.580;2023-05-10T00:39:50;11.40;99.90
4279;DHT22;2153;47.744;10.580;2023-05-10T00:42:16;11.40;99.90
4279;DHT22;2153;47.744;10.580;2023-05-10T00:44:44;11.40;99.90
4279;DHT22;2153;47.744;10.580;2023-05-10T00:47:12;11.30;99.90
4279;DHT22;2153;47.744;10.580;2023-05-10T00:49:39;11.40;99.90
4279;DHT22;2153;47.744;10.580;2023-05-10T00:52:06;11.40;99.90
4279;DHT22;2153;47.744;10.580;2023-05-10T00:54:33;11.40;99.90
4279;DHT22;2153;47.744;10.580;2023-05-10T00:56:59;11.30;99.90
4279;DHT22;2153;47.744;10.580;2023-05-10T00:59:26;11.40;99.90
4279;DHT22;2153;47.744;10.580;2023-05-10T01:01:55;11.40;99.90
4279;DHT22;2153;47.744;10.580;2023-05-10T01:04:21;11.40;99.90
4279;DHT22;2153;47.744;10.580;2023-05-10T01:06:51;11.30;99.90
4279;DHT22;2153;47.744;10.580;2023-05-10T01:09:18;11.40;99.90
4279;DHT22;2153;47.744;10.580;2023-05-10T01:11:45;11.40;99.90
4279;DHT22;2153;47.744;10.580;2023-05-10T01:14:12;11.30;99.90
4279;DHT22;2153;47.744;10.580;2023-05-10T01:16:40;11.30;99.90
4279;DHT22;2153;47.744;10.580;2023-05-10T01:19:18;11.30;99.90
4279;DHT22;2153;47.744;10.580;2023-05-10T01:21:52;11.30;99.90
4279;DHT22;2153;47.744;10.580;2023-05-10T01:24:56;11.30;99.90
4279;DHT22;2153;47.744;10.580;2023-05-10T01:27:47;11.30;99.90
4279;DHT22;2153;47.744;10.580;2023-05-10T01:30:44;11.20;99.90
4279;DHT22;2153;47.744;10.580;2023-05-10T01:33:18;11.30;99.90
4279;DHT22;2153;47.744;10.580;2023-05-10T01:35:51;11.30;99.90
4279;DHT22;2153;47.744;10.580;2023-05-10T01:38:24;11.20;99.90
4279;DHT22;2153;47.744;10.580;2023-05-10T01:41:03;11.20;99.90
4279;DHT22;2153;47.744;10.580;2023-05-10T01:43:42;11.20;99.90
4279;DHT22;2153;47.744;10.580;2023-05-10T01:46:13;11.20;99.90
4279;DHT22;2153;47.744;10.580;2023-05-10T01:48:48;11.20;99.90
4279;DHT22;2153;47.744;10.580;2023-05-10T01:51:21;11.20;99.90
4279;DHT22;2153;47.744;10.580;2023-05-10T01:53:50;11.20;99.90
4279;DHT22;2153;47.744;10.580;2023-05-10T01:56:20;11.20;99.90
4279;DHT22;2153;47.744;10.580;2023-05-10T01:58:49;11.20;99.90
4279;DHT22;2153;47.744;10.580;2023-05-10T02:01:18;11.20;99.90
4279;DHT22;2153;47.744;10.580;2023-05-10T02:03:50;11.20;99.90
4279;DHT22;2153;47.744;10.580;2023-05-10T02:06:18;11.10;99.90
4279;DHT22;2153;47.744;10.580;2023-05-10T02:08:47;11.00;99.90
4279;DHT22;2153;47.744;10.580;2023-05-10T02:11:18;11.00;99.90
4279;DHT22;2153;47.744;10.580;2023-05-10T02:13:47;11.00;99.90
4279;DHT22;2153;47.744;10.580;2023-05-10T02:16:16;10.90;99.90
4279;DHT22;2153;47.744;10.580;2023-05-10T02:18:43;10.90;99.90
4279;DHT22;2153;47.744;10.580;2023-05-10T02:21:13;10.80;99.90
4279;DHT22;2153;47.744;10.580;2023-05-10T02:23:40;10.80;99.90
4279;DHT22;2153;47.744;10.580;2023-05-10T02:26:09;10.80;99.90
4279;DHT22;2153;47.744;10.580;2023-05-10T02:28:37;10.80;99.90
4279;DHT22;2153;47.744;10.580;2023-05-10T02:31:05;10.80;99.90
4279;DHT22;2153;47.744;10.580;2023-05-10T02:33:33;10.70;99.90
4279;DHT22;2153;47.744;10.580;2023-05-10T02:36:01;10.70;99.90
4279;DHT22;2153;47.744;10.580;2023-05-10T02:38:31;10.70;99.90
4279;DHT22;2153;47.744;10.580;2023-05-10T02:40:59;10.70;99.90
4279;DHT22;2153;47.744;10.580;2023-05-10T02:43:28;10.70;99.90
4279;DHT22;2153;47.744;10.580;2023-05-10T02:45:56;10.70;99.90
4279;DHT22;2153;47.744;10.580;2023-05-10T02:48:23;10.70;99.90
4279;DHT22;2153;47.744;10.580;2023-05-10T02:50:52;10.70;99.90
4279;DHT22;2153;47.744;10.580;2023-05-10T02:53:22;10.70;99.90
4279;DHT22;2153;47.744;10.580;2023-05-10T02:55:52;10.70;99.90
4279;DHT22;2153;47.744;10.580;2023-05-10T02:58:20;10.70;99.90
4279;DHT22;2153;47.744;10.580;2023-05-10T03:00:48;10.70;99.90
4279;DHT22;2153;47.744;10.580;2023-05-10T03:03:14;10.70;99.90
4279;DHT22;2153;47.744;10.580;2023-05-10T03:05:41;10.70;99.90
4279;DHT22;2153;47.744;10.580;2023-05-10T03:08:08;10.70;99.90
4279;DHT22;2153;47.744;10.580;2023-05-10T03:10:46;10.70;99.90
4279;DHT22;2153;47.744;10.580;2023-05-10T03:13:25;10.70;99.90
4279;DHT22;2153;47.744;10.580;2023-05-10T03:16:01;10.60;99.90
4279;DHT22;2153;47.744;10.580;2023-05-10T03:18:39;10.60;99.90
4279;DHT22;2153;47.744;10.580;2023-05-10T03:21:10;10.70;99.90
4279;DHT22;2153;47.744;10.580;2023-05-10T03:23:42;10.60;99.90
4279;DHT22;2153;47.744;10.580;2023-05-10T03:26:09;10.60;99.90
4279;DHT22;2153;47.744;10.580;2023-05-10T03:28:40;10.60;99.90
4279;DHT22;2153;47.744;10.580;2023-05-10T03:31:07;10.60;99.90
4279;DHT22;2153;47.744;10.580;2023-05-10T03:33:34;10.60;99.90
4279;DHT22;2153;47.744;10.580;2023-05-10T03:36:01;10.60;99.90
4279;DHT22;2153;47.744;10.580;2023-05-10T03:38:28;10.60;99.90
4279;DHT22;2153;47.744;10.580;2023-05-10T03:40:54;10.60;99.90
4279;DHT22;2153;47.744;10.580;2023-05-10T03:43:21;10.50;99.90
4279;DHT22;2153;47.744;10.580;2023-05-10T03:45:49;10.50;99.90
4279;DHT22;2153;47.744;10.580;2023-05-10T03:48:16;10.50;99.90
4279;DHT22;2153;47.744;10.580;2023-05-10T03:50:42;10.50;99.90
4279;DHT22;2153;47.744;10.580;2023-05-10T03:53:09;10.50;99.90
4279;DHT22;2153;47.744;10.580;2023-05-10T03:55:36;10.50;99.90
4279;DHT22;2153;47.744;10.580;2023-05-10T03:58:03;10.50;99.90
4279;DHT22;2153;47.744;10.580;2023-05-10T04:00:29;10.50;99.90
4279;DHT22;2153;47.744;10.580;2023-05-10T04:02:58;10.50;99.90
4279;DHT22;2153;47.744;10.580;2023-05-10T04:05:25;10.50;99.90
4279;DHT22;2153;47.744;10.580;2023-05-10T04:07:51;10.50;99.90
4279;DHT22;2153;47.744;10.580;2023-05-10T04:10:18;10.50;99.90
4279;DHT22;2153;47.744;10.580;2023-05-10T04:12:46;10.50;99.90
4279;DHT22;2153;47.744;10.580;2023-05-10T04:15:12;10.50;99.90
4279;DHT22;2153;47.744;10.580;2023-05-10T04:17:39;10.50;99.90
4279;DHT22;2153;47.744;10.580;2023-05-10T04:20:08;10.50;99.90
4279;DHT22;2153;47.744;10.580;2023-05-10T04:22:35;10.50;99.90
4279;DHT22;2153;47.744;10.580;2023-05-10T04:25:02;10.60;99.90
4279;DHT22;2153;47.744;10.580;2023-05-10T04:27:29;10.60;99.90
4279;DHT22;2153;47.744;10.580;2023-05-10T04:29:56;10.60;99.90
4279;DHT22;2153;47.744;10.580;2023-05-10T04:32:23;10.50;99.90
4279;DHT22;2153;47.744;10.580;2023-05-10T04:34:50;10.50;99.90
4279;DHT22;2153;47.744;10.580;2023-05-10T04:37:18;10.50;99.90
4279;DHT22;2153;47.744;10.580;2023-05-10T04:39:45;10.50;99.90
4279;DHT22;2153;47.744;10.580;2023-05-10T04:42:11;10.60;99.90
4279;DHT22;2153;47.744;10.580;2023-05-10T04:44:40;10.50;99.90
4279;DHT22;2153;47.744;10.580;2023-05-10T04:47:07;10.50;99.90
4279;DHT22;2153;47.744;10.580;2023-05-10T04:49:33;10.40;99.90
4279;DHT22;2153;47.744;10.580;2023-05-10T04:52:00;10.40;99.90
4279;DHT22;2153;47.744;10.580;2023-05-10T04:54:28;10.40;99.90
4279;DHT22;2153;47.744;10.580;2023-05-10T04:56:55;10.40;99.90
4279;DHT22;2153;47.744;10.580;2023-05-10T04:59:21;10.30;99.90
4279;DHT22;2153;47.744;10.580;2023-05-10T05:01:48;10.10;99.90
4279;DHT22;2153;47.744;10.580;2023-05-10T05:04:15;10.20;99.90
4279;DHT22;2153;47.744;10.580;2023-05-10T05:06:42;10.20;99.90
4279;DHT22;2153;47.744;10.580;2023-05-10T05:09:08;10.10;99.90
4279;DHT22;2153;47.744;10.580;2023-05-10T05:11:37;10.20;99.90
4279;DHT22;2153;47.744;10.580;2023-05-10T05:14:05;10.20;99.90
4279;DHT22;2153;47.744;10.580;2023-05-10T05:16:31;10.20;99.90
4279;DHT22;2153;47.744;10.580;2023-05-10T05:18:59;10.30;99.90
4279;DHT22;2153;47.744;10.580;2023-05-10T05:21:26;10.30;99.90
4279;DHT22;2153;47.744;10.580;2023-05-10T05:23:54;10.40;99.90
4279;DHT22;2153;47.744;10.580;2023-05-10T05:26:21;10.40;99.90
4279;DHT22;2153;47.744;10.580;2023-05-10T05:28:49;10.50;99.90
4279;DHT22;2153;47.744;10.580;2023-05-10T05:31:19;10.50;99.90
4279;DHT22;2153;47.744;10.580;2023-05-10T05:33:45;10.60;99.90
4279;DHT22;2153;47.744;10.580;2023-05-10T05:36:12;10.50;99.90
4279;DHT22;2153;47.744;10.580;2023-05-10T05:38:39;10.50;99.90
4279;DHT22;2153;47.744;10.580;2023-05-10T05:41:06;10.60;99.90
4279;DHT22;2153;47.744;10.580;2023-05-10T05:43:32;10.60;99.90
4279;DHT22;2153;47.744;10.580;2023-05-10T05:46:00;10.60;99.90
4279;DHT22;2153;47.744;10.580;2023-05-10T05:48:29;10.60;99.90
4279;DHT22;2153;47.744;10.580;2023-05-10T05:50:56;10.70;99.90
4279;DHT22;2153;47.744;10.580;2023-05-10T05:53:23;10.70;99.90
4279;DHT22;2153;47.744;10.580;2023-05-10T05:55:53;10.80;99.90
4279;DHT22;2153;47.744;10.580;2023-05-10T05:58:20;10.90;99.90
4279;DHT22;2153;47.744;10.580;2023-05-10T06:00:47;10.90;99.90
4279;DHT22;2153;47.744;10.580;2023-05-10T06:03:15;11.00;99.90
4279;DHT22;2153;47.744;10.580;2023-05-10T06:05:42;11.10;99.90
4279;DHT22;2153;47.744;10.580;2023-05-10T06:08:09;11.10;99.90
4279;DHT22;2153;47.744;10.580;2023-05-10T06:10:35;11.20;99.90
4279;DHT22;2153;47.744;10.580;2023-05-10T06:13:02;11.20;99.90
4279;DHT22;2153;47.744;10.580;2023-05-10T06:15:29;11.40;99.90
4279;DHT22;2153;47.744;10.580;2023-05-10T06:17:56;11.30;99.90
4279;DHT22;2153;47.744;10.580;2023-05-10T06:20:24;11.30;99.90
4279;DHT22;2153;47.744;10.580;2023-05-10T06:22:51;11.30;99.90
4279;DHT22;2153;47.744;10.580;2023-05-10T06:25:18;11.40;99.90
4279;DHT22;2153;47.744;10.580;2023-05-10T06:27:45;11.40;99.90
4279;DHT22;2153;47.744;10.580;2023-05-10T06:30:12;11.40;99.90
4279;DHT22;2153;47.744;10.580;2023-05-10T06:32:40;11.40;99.90
4279;DHT22;2153;47.744;10.580;2023-05-10T06:35:09;11.40;99.90
4279;DHT22;2153;47.744;10.580;2023-05-10T06:37:37;11.30;99.90
4279;DHT22;2153;47.744;10.580;2023-05-10T06:40:05;11.40;99.90
4279;DHT22;2153;47.744;10.580;2023-05-10T06:42:32;11.40;99.90
4279;DHT22;2153;47.744;10.580;2023-05-10T06:44:59;11.30;99.90
4279;DHT22;2153;47.744;10.580;2023-05-10T06:47:25;11.30;99.90
4279;DHT22;2153;47.744;10.580;2023-05-10T06:49:52;11.20;99.90
4279;DHT22;2153;47.744;10.580;2023-05-10T06:52:19;11.20;99.90
4279;DHT22;2153;47.744;10.580;2023-05-10T06:54:47;11.30;99.90
4279;DHT22;2153;47.744;10.580;2023-05-10T06:57:14;11.40;99.90
4279;DHT22;2153;47.744;10.580;2023-05-10T06:59:40;11.50;99.90
4279;DHT22;2153;47.744;10.580;2023-05-10T07:02:07;11.50;99.90
4279;DHT22;2153;47.744;10.580;2023-05-10T07:04:34;11.60;99.90
4279;DHT22;2153;47.744;10.580;2023-05-10T07:07:01;11.70;99.90
4279;DHT22;2153;47.744;10.580;2023-05-10T07:09:28;11.90;99.90
4279;DHT22;2153;47.744;10.580;2023-05-10T07:11:56;12.10;99.90
4279;DHT22;2153;47.744;10.580;2023-05-10T07:14:23;12.20;99.90
4279;DHT22;2153;47.744;10.580;2023-05-10T07:16:50;12.40;99.90
4279;DHT22;2153;47.744;10.580;2023-05-10T07:19:16;12.50;99.90
4279;DHT22;2153;47.744;10.580;2023-05-10T07:21:43;12.50;99.90
4279;DHT22;2153;47.744;10.580;2023-05-10T07:24:10;12.60;99.90
4279;DHT22;2153;47.744;10.580;2023-05-10T07:26:37;12.50;99.90
4279;DHT22;2153;47.744;10.580;2023-05-10T07:29:05;12.50;99.90
4279;DHT22;2153;47.744;10.580;2023-05-10T07:31:32;12.50;99.90
4279;DHT22;2153;47.744;10.580;2023-05-10T07:33:58;12.50;99.90
4279;DHT22;2153;47.744;10.580;2023-05-10T07:36:25;12.50;99.90
4279;DHT22;2153;47.744;10.580;2023-05-10T07:38:53;12.40;99.90
4279;DHT22;2153;47.744;10.580;2023-05-10T07:41:20;12.30;99.90
4279;DHT22;2153;47.744;10.580;2023-05-10T07:43:47;12.30;99.90
4279;DHT22;2153;47.744;10.580;2023-05-10T07:46:15;12.30;99.90
4279;DHT22;2153;47.744;10.580;2023-05-10T07:48:42;12.20;99.90
4279;DHT22;2153;47.744;10.580;2023-05-10T07:51:09;12.10;99.90
4279;DHT22;2153;47.744;10.580;2023-05-10T07:53:36;12.00;99.90
4279;DHT22;2153;47.744;10.580;2023-05-10T07:56:20;12.00;99.90
4279;DHT22;2153;47.744;10.580;2023-05-10T07:58:47;12.00;99.90
4279;DHT22;2153;47.744;10.580;2023-05-10T08:01:13;12.10;99.90
4279;DHT22;2153;47.744;10.580;2023-05-10T08:03:42;12.30;99.90
4279;DHT22;2153;47.744;10.580;2023-05-10T08:06:08;12.40;99.90
4279;DHT22;2153;47.744;10.580;2023-05-10T08:08:35;12.40;99.90
4279;DHT22;2153;47.744;10.580;2023-05-10T08:11:02;12.40;99.90
4279;DHT22;2153;47.744;10.580;2023-05-10T08:13:28;12.40;99.90
4279;DHT22;2153;47.744;10.580;2023-05-10T08:15:56;12.50;99.90
4279;DHT22;2153;47.744;10.580;2023-05-10T08:18:23;12.40;99.90
4279;DHT22;2153;47.744;10.580;2023-05-10T08:20:51;12.30;99.90
4279;DHT22;2153;47.744;10.580;2023-05-10T08:23:18;12.30;99.90
4279;DHT22;2153;47.744;10.580;2023-05-10T08:25:45;12.30;99.90
4279;DHT22;2153;47.744;10.580;2023-05-10T08:28:11;12.30;99.90
4279;DHT22;2153;47.744;10.580;2023-05-10T08:30:38;12.40;99.90
4279;DHT22;2153;47.744;10.580;2023-05-10T08:33:05;12.40;99.90
4279;DHT22;2153;47.744;10.580;2023-05-10T08:35:32;12.60;99.90
4279;DHT22;2153;47.744;10.580;2023-05-10T08:38:01;12.60;99.90
4279;DHT22;2153;47.744;10.580;2023-05-10T08:40:28;12.80;99.90
4279;DHT22;2153;47.744;10.580;2023-05-10T08:42:58;12.80;99.90
4279;DHT22;2153;47.744;10.580;2023-05-10T08:45:32;12.90;99.90
4279;DHT22;2153;47.744;10.580;2023-05-10T08:48:01;13.00;99.90
4279;DHT22;2153;47.744;10.580;2023-05-10T08:50:29;12.90;99.90
4279;DHT22;2153;47.744;10.580;2023-05-10T08:53:00;12.60;99.90
4279;DHT22;2153;47.744;10.580;2023-05-10T08:55:30;12.40;99.90
4279;DHT22;2153;47.744;10.580;2023-05-10T08:57:58;12.30;99.90
4279;DHT22;2153;47.744;10.580;2023-05-10T09:00:27;12.10;99.90
4279;DHT22;2153;47.744;10.580;2023-05-10T09:02:54;12.10;99.90
4279;DHT22;2153;47.744;10.580;2023-05-10T09:05:21;11.90;99.90
4279;DHT22;2153;47.744;10.580;2023-05-10T09:07:48;11.90;99.90
4279;DHT22;2153;47.744;10.580;2023-05-10T09:10:16;11.80;99.90
4279;DHT22;2153;47.744;10.580;2023-05-10T09:12:44;11.80;99.90
4279;DHT22;2153;47.744;10.580;2023-05-10T09:15:11;11.80;99.90
4279;DHT22;2153;47.744;10.580;2023-05-10T09:17:40;11.80;99.90
4279;DHT22;2153;47.744;10.580;2023-05-10T09:20:07;11.80;99.90
4279;DHT22;2153;47.744;10.580;2023-05-10T09:22:34;11.90;99.90
4279;DHT22;2153;47.744;10.580;2023-05-10T09:25:06;12.10;99.90
4279;DHT22;2153;47.744;10.580;2023-05-10T09:27:35;12.30;99.90
4279;DHT22;2153;47.744;10.580;2023-05-10T09:30:02;12.50;99.90
4279;DHT22;2153;47.744;10.580;2023-05-10T09:32:38;12.70;99.90
4279;DHT22;2153;47.744;10.580;2023-05-10T09:35:09;12.90;99.90
4279;DHT22;2153;47.744;10.580;2023-05-10T09:37:36;13.10;99.90
4279;DHT22;2153;47.744;10.580;2023-05-10T09:40:07;13.20;99.90
4279;DHT22;2153;47.744;10.580;2023-05-10T09:42:35;13.20;99.90
4279;DHT22;2153;47.744;10.580;2023-05-10T09:45:03;13.30;99.90
4279;DHT22;2153;47.744;10.580;2023-05-10T09:47:32;13.40;99.90
4279;DHT22;2153;47.744;10.580;2023-05-10T09:49:59;13.50;99.90
4279;DHT22;2153;47.744;10.580;2023-05-10T09:52:30;13.50;99.90
4279;DHT22;2153;47.744;10.580;2023-05-10T09:54:56;13.60;99.90
4279;DHT22;2153;47.744;10.580;2023-05-10T09:57:24;13.60;99.90
4279;DHT22;2153;47.744;10.580;2023-05-10T09:59:52;13.60;99.90
4279;DHT22;2153;47.744;10.580;2023-05-10T10:02:20;13.60;99.90
4279;DHT22;2153;47.744;10.580;2023-05-10T10:04:49;13.60;99.90
4279;DHT22;2153;47.744;10.580;2023-05-10T10:07:22;13.70;99.90
4279;DHT22;2153;47.744;10.580;2023-05-10T10:09:50;13.70;99.90
4279;DHT22;2153;47.744;10.580;2023-05-10T10:12:17;13.80;99.90
4279;DHT22;2153;47.744;10.580;2023-05-10T10:14:45;13.70;99.90
4279;DHT22;2153;47.744;10.580;2023-05-10T10:17:13;13.60;99.90
4279;DHT22;2153;47.744;10.580;2023-05-10T10:19:41;13.50;99.90
4279;DHT22;2153;47.744;10.580;2023-05-10T10:22:08;13.60;99.90
4279;DHT22;2153;47.744;10.580;2023-05-10T10:24:37;13.40;99.90
4279;DHT22;2153;47.744;10.580;2023-05-10T10:27:11;13.40;99.90
4279;DHT22;2153;47.744;10.580;2023-05-10T10:29:49;13.50;99.90
4279;DHT22;2153;47.744;10.580;2023-05-10T10:32:24;13.40;99.90
4279;DHT22;2153;47.744;10.580;2023-05-10T10:34:53;13.60;99.90
4279;DHT22;2153;47.744;10.580;2023-05-10T10:37:20;13.70;99.90
4279;DHT22;2153;47.744;10.580;2023-05-10T10:39:48;13.70;99.90
4279;DHT22;2153;47.744;10.580;2023-05-10T10:42:44;13.70;99.90
4279;DHT22;2153;47.744;10.580;2023-05-10T10:45:14;13.40;99.90
4279;DHT22;2153;47.744;10.580;2023-05-10T10:47:43;13.10;99.90
4279;DHT22;2153;47.744;10.580;2023-05-10T10:50:11;13.00;99.90
4279;DHT22;2153;47.744;10.580;2023-05-10T10:52:39;12.80;99.90
4279;DHT22;2153;47.744;10.580;2023-05-10T10:55:07;12.60;99.90
4279;DHT22;2153;47.744;10.580;2023-05-10T10:57:43;12.60;99.90
4279;DHT22;2153;47.744;10.580;2023-05-10T11:00:26;12.60;99.90
4279;DHT22;2153;47.744;10.580;2023-05-10T11:02:57;12.60;99.90
4279;DHT22;2153;47.744;10.580;2023-05-10T11:08:18;12.50;99.90
4279;DHT22;2153;47.744;10.580;2023-05-10T11:11:09;12.50;99.90
4279;DHT22;2153;47.744;10.580;2023-05-10T11:13:40;12.40;99.90
4279;DHT22;2153;47.744;10.580;2023-05-10T11:16:16;12.40;99.90
4279;DHT22;2153;47.744;10.580;2023-05-10T11:18:58;12.50;99.90
4279;DHT22;2153;47.744;10.580;2023-05-10T11:21:25;12.50;99.90
4279;DHT22;2153;47.744;10.580;2023-05-10T11:23:52;12.60;99.90
4279;DHT22;2153;47.744;10.580;2023-05-10T11:26:22;12.70;99.90
4279;DHT22;2153;47.744;10.580;2023-05-10T11:28:52;12.90;99.90
4279;DHT22;2153;47.744;10.580;2023-05-10T11:31:20;12.90;99.90
4279;DHT22;2153;47.744;10.580;2023-05-10T11:33:49;12.80;99.90
4279;DHT22;2153;47.744;10.580;2023-05-10T11:36:18;12.80;99.90
4279;DHT22;2153;47.744;10.580;2023-05-10T11:38:45;12.80;99.90
4279;DHT22;2153;47.744;10.580;2023-05-10T11:41:13;12.90;99.90
4279;DHT22;2153;47.744;10.580;2023-05-10T11:43:40;12.90;99.90
4279;DHT22;2153;47.744;10.580;2023-05-10T11:46:09;12.80;99.90
4279;DHT22;2153;47.744;10.580;2023-05-10T11:48:37;12.90;99.90
4279;DHT22;2153;47.744;10.580;2023-05-10T11:51:05;12.80;99.90
4279;DHT22;2153;47.744;10.580;2023-05-10T11:53:34;12.70;99.90
4279;DHT22;2153;47.744;10.580;2023-05-10T11:56:04;12.70;99.90
4279;DHT22;2153;47.744;10.580;2023-05-10T11:58:31;12.70;99.90
4279;DHT22;2153;47.744;10.580;2023-05-10T12:00:58;12.80;99.90
4279;DHT22;2153;47.744;10.580;2023-05-10T12:03:26;12.90;99.90
4279;DHT22;2153;47.744;10.580;2023-05-10T12:05:53;13.00;99.90
4279;DHT22;2153;47.744;10.580;2023-05-10T12:08:22;13.00;99.90
4279;DHT22;2153;47.744;10.580;2023-05-10T12:10:50;13.00;99.90
4279;DHT22;2153;47.744;10.580;2023-05-10T12:13:18;13.00;99.90
4279;DHT22;2153;47.744;10.580;2023-05-10T12:15:46;13.00;99.90
4279;DHT22;2153;47.744;10.580;2023-05-10T12:18:14;13.00;99.90
4279;DHT22;2153;47.744;10.580;2023-05-10T12:20:41;13.00;99.90
4279;DHT22;2153;47.744;10.580;2023-05-10T12:23:09;13.00;99.90
4279;DHT22;2153;47.744;10.580;2023-05-10T12:25:37;13.00;99.90
4279;DHT22;2153;47.744;10.580;2023-05-10T12:28:06;13.10;99.90
4279;DHT22;2153;47.744;10.580;2023-05-10T12:30:35;13.00;99.90
4279;DHT22;2153;47.744;10.580;2023-05-10T12:33:02;13.00;99.90
4279;DHT22;2153;47.744;10.580;2023-05-10T12:35:38;13.00;99.90
4279;DHT22;2153;47.744;10.580;2023-05-10T12:38:25;12.90;99.90
4279;DHT22;2153;47.744;10.580;2023-05-10T12:40:52;13.00;99.90
4279;DHT22;2153;47.744;10.580;2023-05-10T12:43:20;12.90;99.90
4279;DHT22;2153;47.744;10.580;2023-05-10T12:45:47;13.00;99.90
4279;DHT22;2153;47.744;10.580;2023-05-10T12:48:14;13.10;99.90
4279;DHT22;2153;47.744;10.580;2023-05-10T12:50:41;13.10;99.90
4279;DHT22;2153;47.744;10.580;2023-05-10T12:53:07;13.10;99.90
4279;DHT22;2153;47.744;10.580;2023-05-10T12:55:34;13.10;99.90
4279;DHT22;2153;47.744;10.580;2023-05-10T12:58:01;12.90;99.90
4279;DHT22;2153;47.744;10.580;2023-05-10T13:00:29;12.60;99.90
4279;DHT22;2153;47.744;10.580;2023-05-10T13:02:56;12.10;99.90
4279;DHT22;2153;47.744;10.580;2023-05-10T13:05:23;11.70;99.90
4279;DHT22;2153;47.744;10.580;2023-05-10T13:07:49;11.40;99.90
4279;DHT22;2153;47.744;10.580;2023-05-10T13:10:16;11.20;99.90
4279;DHT22;2153;47.744;10.580;2023-05-10T13:12:43;11.00;99.90
4279;DHT22;2153;47.744;10.580;2023-05-10T13:15:10;11.10;99.90
4279;DHT22;2153;47.744;10.580;2023-05-10T13:17:38;11.00;99.90
4279;DHT22;2153;47.744;10.580;2023-05-10T13:20:06;11.10;99.90
4279;DHT22;2153;47.744;10.580;2023-05-10T13:22:33;11.20;99.90
4279;DHT22;2153;47.744;10.580;2023-05-10T13:25:00;11.10;99.90
4279;DHT22;2153;47.744;10.580;2023-05-10T13:27:27;11.10;99.90
4279;DHT22;2153;47.744;10.580;2023-05-10T13:29:54;11.00;99.90
4279;DHT22;2153;47.744;10.580;2023-05-10T13:32:21;11.00;99.90
4279;DHT22;2153;47.744;10.580;2023-05-10T13:34:49;11.00;99.90
4279;DHT22;2153;47.744;10.580;2023-05-10T13:37:16;11.00;99.90
4279;DHT22;2153;47.744;10.580;2023-05-10T13:39:42;11.10;99.90
4279;DHT22;2153;47.744;10.580;2023-05-10T13:42:09;11.20;99.90
4279;DHT22;2153;47.744;10.580;2023-05-10T13:44:36;11.10;99.90
4279;DHT22;2153;47.744;10.580;2023-05-10T13:47:04;11.20;99.90
4279;DHT22;2153;47.744;10.580;2023-05-10T13:49:30;11.30;99.90
4279;DHT22;2153;47.744;10.580;2023-05-10T13:51:59;11.30;99.90
4279;DHT22;2153;47.744;10.580;2023-05-10T13:54:31;11.30;99.90
4279;DHT22;2153;47.744;10.580;2023-05-10T13:56:57;11.30;99.90
4279;DHT22;2153;47.744;10.580;2023-05-10T13:59:24;11.30;99.90
4279;DHT22;2153;47.744;10.580;2023-05-10T14:01:51;11.30;99.90
4279;DHT22;2153;47.744;10.580;2023-05-10T14:04:18;11.20;99.90
4279;DHT22;2153;47.744;10.580;2023-05-10T14:06:44;11.20;99.90
4279;DHT22;2153;47.744;10.580;2023-05-10T14:09:12;11.20;99.90
4279;DHT22;2153;47.744;10.580;2023-05-10T14:11:39;11.20;99.90
4279;DHT22;2153;47.744;10.580;2023-05-10T14:14:08;11.20;99.90
4279;DHT22;2153;47.744;10.580;2023-05-10T14:16:35;11.20;99.90
4279;DHT22;2153;47.744;10.580;2023-05-10T14:19:02;11.30;99.90
4279;DHT22;2153;47.744;10.580;2023-05-10T14:21:29;11.20;99.90
4279;DHT22;2153;47.744;10.580;2023-05-10T14:23:56;11.10;99.90
4279;DHT22;2153;47.744;10.580;2023-05-10T14:26:24;11.10;99.90
4279;DHT22;2153;47.744;10.580;2023-05-10T14:28:51;11.00;99.90
4279;DHT22;2153;47.744;10.580;2023-05-10T14:31:18;10.90;99.90
4279;DHT22;2153;47.744;10.580;2023-05-10T14:33:45;10.90;99.90
4279;DHT22;2153;47.744;10.580;2023-05-10T14:36:12;10.90;99.90
4279;DHT22;2153;47.744;10.580;2023-05-10T14:38:39;11.00;99.90
4279;DHT22;2153;47.744;10.580;2023-05-10T14:41:06;11.00;99.90
4279;DHT22;2153;47.744;10.580;2023-05-10T14:43:34;10.90;99.90
4279;DHT22;2153;47.744;10.580;2023-05-10T14:46:02;11.00;99.90
4279;DHT22;2153;47.744;10.580;2023-05-10T14:48:28;10.90;99.90
4279;DHT22;2153;47.744;10.580;2023-05-10T14:50:55;10.80;99.90
4279;DHT22;2153;47.744;10.580;2023-05-10T14:53:22;10.60;99.90
4279;DHT22;2153;47.744;10.580;2023-05-10T14:55:48;10.50;99.90
4279;DHT22;2153;47.744;10.580;2023-05-10T14:58:15;10.40;99.90
4279;DHT22;2153;47.744;10.580;2023-05-10T15:00:43;10.40;99.90
4279;DHT22;2153;47.744;10.580;2023-05-10T15:03:11;10.40;99.90
4279;DHT22;2153;47.744;10.580;2023-05-10T15:05:38;10.40;99.90
4279;DHT22;2153;47.744;10.580;2023-05-10T15:08:05;10.20;99.90
4279;DHT22;2153;47.744;10.580;2023-05-10T15:10:31;10.40;99.90
4279;DHT22;2153;47.744;10.580;2023-05-10T15:12:59;10.40;99.90
4279;DHT22;2153;47.744;10.580;2023-05-10T15:15:26;10.30;99.90
4279;DHT22;2153;47.744;10.580;2023-05-10T15:17:54;10.10;99.90
4279;DHT22;2153;47.744;10.580;2023-05-10T15:20:20;10.00;99.90
4279;DHT22;2153;47.744;10.580;2023-05-10T15:22:47;10.00;99.90
4279;DHT22;2153;47.744;10.580;2023-05-10T15:25:14;10.00;99.90
4279;DHT22;2153;47.744;10.580;2023-05-10T15:27:41;10.10;99.90
4279;DHT22;2153;47.744;10.580;2023-05-10T15:30:09;9.90;99.90
4279;DHT22;2153;47.744;10.580;2023-05-10T15:32:36;9.90;99.90
4279;DHT22;2153;47.744;10.580;2023-05-10T15:35:07;10.00;99.90
4279;DHT22;2153;47.744;10.580;2023-05-10T15:37:34;10.00;99.90
4279;DHT22;2153;47.744;10.580;2023-05-10T15:40:01;10.00;99.90
4279;DHT22;2153;47.744;10.580;2023-05-10T15:42:29;9.80;99.90
4279;DHT22;2153;47.744;10.580;2023-05-10T15:44:57;9.70;99.90
4279;DHT22;2153;47.744;10.580;2023-05-10T15:47:24;9.80;99.90
4279;DHT22;2153;47.744;10.580;2023-05-10T15:49:50;9.80;99.90
4279;DHT22;2153;47.744;10.580;2023-05-10T15:52:19;9.80;99.90
4279;DHT22;2153;47.744;10.580;2023-05-10T15:54:46;9.90;99.90
4279;DHT22;2153;47.744;10.580;2023-05-10T15:57:13;9.90;99.90